Time;durP1;ratioP1;P1;durP2;ratioP2;P2;SDS_P1;SDS_P2;PMS_P1;PMS_P2;Temp;Humidity;BMP_temperature;BMP_pressure;BME280_temperature;BME280_humidity;BME280_pressure;Samples;Min_cycle;Max_cycle;Signal;HPM_P1;HPM_P2
2023/04/05 00:06:11;;;;;;;8.2;3.8;;;;;;;-3.7;69.5;99230;;;;
2023/04/05 00:17:08;;;;;;;8.2;3.8;;;;;;;-3.8;70.2;99220;;;;
2023/04/05 00:28:08;;;;;;;7.1;4.1;;;;;;;-3.8;70.9;99200;;;;
2023/04/05 00:38:08;;;;;;;7.1;4.1;;;;;;;-4;71.2;99210;;;;
2023/04/05 00:48:08;;;;;;;7.1;4.1;;;;;;;-4;72.9;99210;;;;
2023/04/05 00:58:09;;;;;;;8.8;4.8;;;;;;;-4.1;72.7;99200;;;;
2023/04/05 01:09:08;;;;;;;8.8;4.8;;;;;;;-4.1;73.5;99200;;;;
2023/04/05 01:19:08;;;;;;;8.8;4.8;;;;;;;-4.2;74;99200;;;;
2023/04/05 01:29:09;;;;;;;10;5;;;;;;;-4.2;74.1;99190;;;;
2023/04/05 01:40:08;;;;;;;10;5;;;;;;;-4.3;73.9;99180;;;;
2023/04/05 01:51:08;;;;;;;7.2;4.7;;;;;;;-4.4;74.6;99180;;;;
2023/04/05 02:01:08;;;;;;;7.2;4.7;;;;;;;-4.5;74.5;99180;;;;
2023/04/05 02:12:08;;;;;;;7.2;4.7;;;;;;;-4.5;74.8;99180;;;;
2023/04/05 02:22:08;;;;;;;7.4;4.6;;;;;;;-4.6;74.8;99170;;;;
2023/04/05 02:32:09;;;;;;;7.4;4.6;;;;;;;-4.6;75.2;99170;;;;
2023/04/05 02:43:08;;;;;;;7.4;4.6;;;;;;;-4.5;75.6;99170;;;;
2023/04/05 02:53:08;;;;;;;10.2;5.9;;;;;;;-4.5;75.9;99160;;;;
2023/04/05 03:04:10;;;;;;;10.2;5.9;;;;;;;-4.4;76.7;99160;;;;
2023/04/05 03:15:09;;;;;;;10.2;5.9;;;;;;;-4.4;76.5;99160;;;;
2023/04/05 03:26:09;;;;;;;9.2;5.6;;;;;;;-4.5;76.2;99160;;;;
2023/04/05 03:36:08;;;;;;;9.2;5.6;;;;;;;-4.6;76.8;99160;;;;
2023/04/05 03:47:08;;;;;;;9.2;5.6;;;;;;;-4.8;76.9;99160;;;;
2023/04/05 03:57:09;;;;;;;11.1;6.1;;;;;;;-4.9;77.2;99160;;;;
2023/04/05 04:08:08;;;;;;;11.1;6.1;;;;;;;-4.9;77.3;99150;;;;
2023/04/05 04:19:08;;;;;;;10.7;4.6;;;;;;;-4.9;77.3;99160;;;;
2023/04/05 04:30:09;;;;;;;10.7;4.6;;;;;;;-4.8;77.8;99160;;;;
2023/04/05 04:41:08;;;;;;;10.7;4.6;;;;;;;-4.6;78.1;99160;;;;
2023/04/05 04:51:09;;;;;;;10.5;5.2;;;;;;;-4.4;79.2;99150;;;;
2023/04/05 05:02:09;;;;;;;10.5;5.2;;;;;;;-4;79.4;99160;;;;
2023/04/05 05:12:08;;;;;;;10.5;5.2;;;;;;;-3.3;79.4;99160;;;;
2023/04/05 05:22:09;;;;;;;11.6;6.3;;;;;;;-2.4;77.8;99180;;;;
2023/04/05 05:32:13;;;;;;;11.6;6.3;;;;;;;-1.9;75.9;99180;;;;
2023/04/05 05:43:09;;;;;;;11.6;6.3;;;;;;;-1.6;73.9;99180;;;;
2023/04/05 05:54:08;;;;;;;16.5;9.4;;;;;;;-1.3;73.3;99180;;;;
2023/04/05 06:05:09;;;;;;;16.5;9.4;;;;;;;-0.9;72.6;99170;;;;
2023/04/05 06:15:09;;;;;;;16.5;9.4;;;;;;;-0.7;71.2;99170;;;;
2023/04/05 06:26:08;;;;;;;18;10.9;;;;;;;-0.1;70;99170;;;;
2023/04/05 06:36:08;;;;;;;18;10.9;;;;;;;0.3;67.4;99170;;;;
2023/04/05 06:46:11;;;;;;;18;10.9;;;;;;;0.6;67;99170;;;;
2023/04/05 06:57:08;;;;;;;19.3;11.5;;;;;;;1;64.8;99170;;;;
2023/04/05 07:07:08;;;;;;;19.3;11.5;;;;;;;1.4;63.8;99170;;;;
2023/04/05 07:18:08;;;;;;;17.8;10.7;;;;;;;1.6;62.4;99170;;;;
2023/04/05 07:28:08;;;;;;;17.8;10.7;;;;;;;1.9;59.8;99170;;;;
2023/04/05 07:38:10;;;;;;;17.8;10.7;;;;;;;2.1;58.7;99160;;;;
2023/04/05 07:48:09;;;;;;;10.9;6.1;;;;;;;2.4;57.9;99160;;;;
2023/04/05 07:59:08;;;;;;;10.9;6.1;;;;;;;2.5;53.9;99150;;;;
2023/04/05 08:10:09;;;;;;;10.9;6.1;;;;;;;2.9;55.5;99150;;;;
2023/04/05 08:21:08;;;;;;;10;5.5;;;;;;;3.1;54.2;99150;;;;
2023/04/05 08:31:08;;;;;;;10;5.5;;;;;;;3.4;53.7;99140;;;;
2023/04/05 08:41:09;;;;;;;10;5.5;;;;;;;3.7;54.8;99140;;;;
2023/04/05 08:52:08;;;;;;;12.8;7.3;;;;;;;3.3;55.3;99140;;;;
2023/04/05 09:02:09;;;;;;;12.8;7.3;;;;;;;3.5;56;99130;;;;
2023/04/05 09:13:09;;;;;;;12.8;7.3;;;;;;;3.8;52.4;99130;;;;
2023/04/05 09:23:09;;;;;;;12.6;7.2;;;;;;;4.1;52.8;99130;;;;
2023/04/05 09:34:09;;;;;;;12.6;7.2;;;;;;;4.2;52.3;99130;;;;
2023/04/05 09:45:09;;;;;;;12.6;7.2;;;;;;;4.9;50.5;99110;;;;
2023/04/05 09:56:09;;;;;;;12.3;6.8;;;;;;;5.3;49.5;99120;;;;
2023/04/05 10:06:08;;;;;;;12.3;6.8;;;;;;;5.5;49.1;99110;;;;
2023/04/05 10:17:09;;;;;;;12.3;6.8;;;;;;;4.9;49.8;99110;;;;
2023/04/05 10:27:09;;;;;;;15.4;10.4;;;;;;;5.3;50.2;99110;;;;
2023/04/05 10:38:09;;;;;;;15.4;10.4;;;;;;;5.7;47.9;99100;;;;
2023/04/05 10:49:09;;;;;;;13.2;8.7;;;;;;;5.7;51;99090;;;;
2023/04/05 10:59:08;;;;;;;13.2;8.7;;;;;;;5.2;51.5;99090;;;;
2023/04/05 11:10:09;;;;;;;13.2;8.7;;;;;;;4.8;52.1;99090;;;;
2023/04/05 11:20:09;;;;;;;15.6;9.5;;;;;;;4.8;52.8;99090;;;;
2023/04/05 11:30:09;;;;;;;15.6;9.5;;;;;;;5.4;50.6;99080;;;;
2023/04/05 11:41:09;;;;;;;15.6;9.5;;;;;;;7.1;48.9;99070;;;;
2023/04/05 11:52:09;;;;;;;12.6;8.5;;;;;;;6.5;48.8;99070;;;;
2023/04/05 12:02:09;;;;;;;12.6;8.5;;;;;;;5.5;48.4;99080;;;;
2023/04/05 12:13:09;;;;;;;12.6;8.5;;;;;;;5.9;49.7;99080;;;;
2023/04/05 12:24:09;;;;;;;13.6;8.3;;;;;;;6.1;49.8;99070;;;;
2023/04/05 12:34:09;;;;;;;13.6;8.3;;;;;;;6.2;47.7;99060;;;;
2023/04/05 12:45:09;;;;;;;13.6;8.3;;;;;;;6;45.9;99060;;;;
2023/04/05 12:55:09;;;;;;;8.8;7;;;;;;;6.4;46.3;99060;;;;
2023/04/05 13:06:09;;;;;;;8.8;7;;;;;;;7;46.9;99050;;;;
2023/04/05 13:16:09;;;;;;;8.8;7;;;;;;;6.9;44.6;99060;;;;
2023/04/05 13:27:09;;;;;;;10.1;7;;;;;;;6.6;44.1;99050;;;;
2023/04/05 13:37:09;;;;;;;10.1;7;;;;;;;6.7;44.5;99050;;;;
2023/04/05 13:48:09;;;;;;;15.3;8.9;;;;;;;6.9;44;99050;;;;
2023/04/05 13:58:09;;;;;;;15.3;8.9;;;;;;;7.6;42.8;99040;;;;
2023/04/05 14:08:09;;;;;;;15.3;8.9;;;;;;;7.2;43;99040;;;;
2023/04/05 14:18:09;;;;;;;13.2;8.6;;;;;;;6.2;44.7;99040;;;;
2023/04/05 14:28:09;;;;;;;13.2;8.6;;;;;;;7.2;42.9;99040;;;;
2023/04/05 14:38:09;;;;;;;13.2;8.6;;;;;;;7.5;40.9;99040;;;;
2023/04/05 14:48:09;;;;;;;11.8;7.3;;;;;;;7.3;42.1;99040;;;;
2023/04/05 14:58:09;;;;;;;11.8;7.3;;;;;;;6.8;41.9;99030;;;;
2023/04/05 15:08:09;;;;;;;11.8;7.3;;;;;;;7.4;42.4;99030;;;;
2023/04/05 15:19:09;;;;;;;11.6;7.8;;;;;;;8.4;39;99030;;;;
2023/04/05 15:29:09;;;;;;;11.6;7.8;;;;;;;6.6;41.8;99030;;;;
2023/04/05 15:40:09;;;;;;;11.6;7.8;;;;;;;7.5;41;99040;;;;
2023/04/05 15:50:09;;;;;;;27.2;19.3;;;;;;;10.8;34.3;99030;;;;
2023/04/05 16:00:09;;;;;;;27.2;19.3;;;;;;;12.1;33.3;99040;;;;
2023/04/05 16:11:09;;;;;;;27.2;19.3;;;;;;;11;32.7;99040;;;;
2023/04/05 16:21:09;;;;;;;15.8;11.3;;;;;;;9.2;34.7;99040;;;;
2023/04/05 16:31:09;;;;;;;15.8;11.3;;;;;;;7.8;38.5;99050;;;;
2023/04/05 16:42:09;;;;;;;15.8;11.3;;;;;;;6.3;41.2;99050;;;;
2023/04/05 16:52:09;;;;;;;18.8;12.9;;;;;;;5.5;42.9;99050;;;;
2023/04/05 17:02:09;;;;;;;18.8;12.9;;;;;;;4.9;45.2;99060;;;;
2023/04/05 17:13:09;;;;;;;18.8;12.9;;;;;;;4.3;47.2;99060;;;;
2023/04/05 17:23:09;;;;;;;12;6.2;;;;;;;3.8;48.4;99070;;;;
2023/04/05 17:34:12;;;;;;;12;6.2;;;;;;;3.5;49;99080;;;;
2023/04/05 17:45:10;;;;;;;12;6.2;;;;;;;3.2;49.7;99080;;;;
2023/04/05 17:56:09;;;;;;;8.6;4.3;;;;;;;3;50.6;99090;;;;
2023/04/05 18:06:09;;;;;;;8.6;4.3;;;;;;;2.8;52;99100;;;;
2023/04/05 18:17:09;;;;;;;16.3;8.3;;;;;;;2.7;53;99100;;;;
2023/04/05 18:27:09;;;;;;;16.3;8.3;;;;;;;2.6;54.2;99100;;;;
2023/04/05 18:37:09;;;;;;;16.3;8.3;;;;;;;2.5;54.6;99100;;;;
2023/04/05 18:47:09;;;;;;;28.8;15.7;;;;;;;2.5;55.6;99100;;;;
2023/04/05 18:58:09;;;;;;;28.8;15.7;;;;;;;2.4;56.6;99110;;;;
2023/04/05 19:09:10;;;;;;;28.8;15.7;;;;;;;2.3;57;99110;;;;
2023/04/05 19:19:09;;;;;;;54.3;26.5;;;;;;;2.2;57.3;99100;;;;
2023/04/05 19:30:09;;;;;;;54.3;26.5;;;;;;;2.1;57.8;99100;;;;
2023/04/05 19:41:09;;;;;;;54.3;26.5;;;;;;;2;59.4;99100;;;;
2023/04/05 19:51:09;;;;;;;93.6;47.2;;;;;;;2;60.2;99100;;;;
2023/04/05 20:01:09;;;;;;;93.6;47.2;;;;;;;2;60.4;99090;;;;
2023/04/05 20:12:11;;;;;;;93.6;47.2;;;;;;;1.9;60.8;99090;;;;
2023/04/05 20:23:09;;;;;;;45.1;24.5;;;;;;;2;60.9;99080;;;;
2023/04/05 20:33:09;;;;;;;45.1;24.5;;;;;;;1.9;61.4;99080;;;;
2023/04/05 20:43:09;;;;;;;45.1;24.5;;;;;;;1.9;62.5;99080;;;;
2023/04/05 20:53:09;;;;;;;38.4;21.3;;;;;;;1.8;63;99090;;;;
2023/04/05 21:03:09;;;;;;;38.4;21.3;;;;;;;1.8;63.7;99090;;;;
2023/04/05 21:14:09;;;;;;;38.4;21.3;;;;;;;1.8;63;99090;;;;
2023/04/05 21:24:09;;;;;;;46.6;24;;;;;;;1.9;62.4;99080;;;;
2023/04/05 21:34:09;;;;;;;46.6;24;;;;;;;2;63.2;99080;;;;
2023/04/05 21:45:09;;;;;;;46.6;24;;;;;;;1.9;62.4;99080;;;;
2023/04/05 21:56:09;;;;;;;13.4;7.9;;;;;;;1.7;62.6;99080;;;;
2023/04/05 22:06:09;;;;;;;13.4;7.9;;;;;;;1.7;62.5;99080;;;;
2023/04/05 22:16:09;;;;;;;11.8;6.2;;;;;;;1.6;62.8;99080;;;;
2023/04/05 22:27:09;;;;;;;11.8;6.2;;;;;;;1.5;63.4;99080;;;;
2023/04/05 22:38:09;;;;;;;11.8;6.2;;;;;;;1.3;63.5;99090;;;;
2023/04/05 22:49:09;;;;;;;11.8;6.5;;;;;;;0.9;65.1;99080;;;;
2023/04/05 23:00:10;;;;;;;11.8;6.5;;;;;;;0.6;65.2;99080;;;;
2023/04/05 23:11:09;;;;;;;11.8;6.5;;;;;;;0.2;66;99070;;;;
2023/04/05 23:22:09;;;;;;;10.4;5.7;;;;;;;0;66.2;99080;;;;
2023/04/05 23:33:09;;;;;;;10.4;5.7;;;;;;;-0.4;66.2;99080;;;;
2023/04/05 23:43:09;;;;;;;10.4;5.7;;;;;;;-0.7;66.4;99070;;;;
2023/04/05 23:54:09;;;;;;;8.8;5.2;;;;;;;-0.9;67.6;99070;;;;
